KRCR/RCR METAR and TAF weather

Enter ICAO airport designator
Station Type Date Time Source
KRCR METAR 2021/04/14 19:35 UTC NOAA

KRCR 141935Z AUTO 26010G21KT 230V300 10SM SCT055 12/M02 A3003 RMK AO2


Station Type Date Time Source
KRCR Decoded METAR 2021/04/14 19:35 UTC NOAA

Station name not available
Apr 14, 2021 - 03:35 PM EDT / 2021.04.14 1935 UTC
Wind: from the W (260 degrees) at 12 MPH (10 KT) gusting to 24 MPH (21 KT) (direction variable):0
Visibility: 10 mile(s):0
Sky conditions: partly cloudy
Temperature: 53 F (12 C)
Dew Point: 28 F (-2 C)
Relative Humidity: 37%
Pressure (altimeter): 30.03 in. Hg (1016 hPa)
ob: KRCR 141935Z AUTO 26010G21KT 230V300 10SM SCT055 12/M02 A3003 RMK AO2
cycle: 19

Station Type Date Time Source
KRCR TAF UTC NOAA

Error!

Example: see airport list